sensor_id;sensor_type;location;lat;lon;timestamp;P1;durP1;ratioP1;P2;durP2;ratioP2
46767;SDS011;69007;48.978;18.066;2023-08-21T00:00:45;13.20;;;7.97;;
46767;SDS011;69007;48.978;18.066;2023-08-21T00:03:10;10.93;;;7.03;;
46767;SDS011;69007;48.978;18.066;2023-08-21T00:05:36;11.10;;;7.88;;
46767;SDS011;69007;48.978;18.066;2023-08-21T00:08:01;13.07;;;7.78;;
46767;SDS011;69007;48.978;18.066;2023-08-21T00:10:27;9.05;;;7.18;;
46767;SDS011;69007;48.978;18.066;2023-08-21T00:12:52;7.97;;;7.18;;
46767;SDS011;69007;48.978;18.066;2023-08-21T00:15:18;12.55;;;7.38;;
46767;SDS011;69007;48.978;18.066;2023-08-21T00:17:44;8.13;;;7.15;;
46767;SDS011;69007;48.978;18.066;2023-08-21T00:20:09;9.25;;;7.30;;
46767;SDS011;69007;48.978;18.066;2023-08-21T00:22:35;9.52;;;6.65;;
46767;SDS011;69007;48.978;18.066;2023-08-21T00:25:01;9.98;;;6.70;;
46767;SDS011;69007;48.978;18.066;2023-08-21T00:27:27;9.02;;;7.90;;
46767;SDS011;69007;48.978;18.066;2023-08-21T00:29:52;7.80;;;6.95;;
46767;SDS011;69007;48.978;18.066;2023-08-21T00:32:17;11.23;;;8.30;;
46767;SDS011;69007;48.978;18.066;2023-08-21T00:34:43;10.32;;;7.40;;
46767;SDS011;69007;48.978;18.066;2023-08-21T00:37:08;9.70;;;7.47;;
46767;SDS011;69007;48.978;18.066;2023-08-21T00:39:33;9.90;;;7.47;;
46767;SDS011;69007;48.978;18.066;2023-08-21T00:41:59;10.05;;;7.78;;
46767;SDS011;69007;48.978;18.066;2023-08-21T00:44:24;9.48;;;7.50;;
46767;SDS011;69007;48.978;18.066;2023-08-21T00:46:49;8.60;;;7.50;;
46767;SDS011;69007;48.978;18.066;2023-08-21T00:49:15;12.48;;;7.93;;
46767;SDS011;69007;48.978;18.066;2023-08-21T00:51:40;12.68;;;8.02;;
46767;SDS011;69007;48.978;18.066;2023-08-21T00:54:06;11.85;;;7.32;;
46767;SDS011;69007;48.978;18.066;2023-08-21T00:56:31;14.90;;;8.07;;
46767;SDS011;69007;48.978;18.066;2023-08-21T00:58:56;13.23;;;8.25;;
46767;SDS011;69007;48.978;18.066;2023-08-21T01:01:23;9.25;;;8.02;;
46767;SDS011;69007;48.978;18.066;2023-08-21T01:03:50;10.95;;;8.38;;
46767;SDS011;69007;48.978;18.066;2023-08-21T01:06:16;13.77;;;8.60;;
46767;SDS011;69007;48.978;18.066;2023-08-21T01:11:50;16.95;;;8.90;;
46767;SDS011;69007;48.978;18.066;2023-08-21T01:15:08;10.90;;;8.30;;
46767;SDS011;69007;48.978;18.066;2023-08-21T01:17:17;9.43;;;7.82;;
46767;SDS011;69007;48.978;18.066;2023-08-21T01:19:46;9.57;;;7.95;;
46767;SDS011;69007;48.978;18.066;2023-08-21T01:22:13;13.63;;;8.80;;
46767;SDS011;69007;48.978;18.066;2023-08-21T01:24:39;12.63;;;9.25;;
46767;SDS011;69007;48.978;18.066;2023-08-21T01:27:04;9.13;;;8.23;;
46767;SDS011;69007;48.978;18.066;2023-08-21T01:29:30;11.05;;;8.80;;
46767;SDS011;69007;48.978;18.066;2023-08-21T01:34:49;10.48;;;9.02;;
46767;SDS011;69007;48.978;18.066;2023-08-21T01:37:16;10.60;;;8.38;;
46767;SDS011;69007;48.978;18.066;2023-08-21T01:39:42;10.15;;;8.93;;
46767;SDS011;69007;48.978;18.066;2023-08-21T01:42:08;16.83;;;9.40;;
46767;SDS011;69007;48.978;18.066;2023-08-21T01:44:33;8.68;;;7.88;;
46767;SDS011;69007;48.978;18.066;2023-08-21T01:46:58;12.23;;;8.77;;
46767;SDS011;69007;48.978;18.066;2023-08-21T01:49:24;10.07;;;9.02;;
46767;SDS011;69007;48.978;18.066;2023-08-21T01:51:49;10.02;;;8.48;;
46767;SDS011;69007;48.978;18.066;2023-08-21T01:54:14;9.88;;;8.25;;
46767;SDS011;69007;48.978;18.066;2023-08-21T01:56:40;12.23;;;8.50;;
46767;SDS011;69007;48.978;18.066;2023-08-21T01:59:05;11.40;;;8.57;;
46767;SDS011;69007;48.978;18.066;2023-08-21T02:01:31;13.90;;;9.45;;
46767;SDS011;69007;48.978;18.066;2023-08-21T02:03:57;9.82;;;8.52;;
46767;SDS011;69007;48.978;18.066;2023-08-21T02:06:22;12.73;;;8.77;;
46767;SDS011;69007;48.978;18.066;2023-08-21T02:08:48;11.13;;;9.43;;
46767;SDS011;69007;48.978;18.066;2023-08-21T02:11:14;10.65;;;8.75;;
46767;SDS011;69007;48.978;18.066;2023-08-21T02:13:39;9.73;;;8.73;;
46767;SDS011;69007;48.978;18.066;2023-08-21T02:16:04;10.85;;;9.02;;
46767;SDS011;69007;48.978;18.066;2023-08-21T02:18:30;16.65;;;9.48;;
46767;SDS011;69007;48.978;18.066;2023-08-21T02:20:55;12.82;;;8.98;;
46767;SDS011;69007;48.978;18.066;2023-08-21T02:23:21;10.27;;;8.75;;
46767;SDS011;69007;48.978;18.066;2023-08-21T02:25:46;12.00;;;9.00;;
46767;SDS011;69007;48.978;18.066;2023-08-21T02:28:14;9.77;;;8.77;;
46767;SDS011;69007;48.978;18.066;2023-08-21T02:30:42;13.30;;;9.77;;
46767;SDS011;69007;48.978;18.066;2023-08-21T02:33:07;9.95;;;8.88;;
46767;SDS011;69007;48.978;18.066;2023-08-21T02:35:33;9.75;;;8.77;;
46767;SDS011;69007;48.978;18.066;2023-08-21T02:37:58;13.38;;;8.95;;
46767;SDS011;69007;48.978;18.066;2023-08-21T02:40:24;10.65;;;8.65;;
46767;SDS011;69007;48.978;18.066;2023-08-21T02:42:49;11.20;;;8.63;;
46767;SDS011;69007;48.978;18.066;2023-08-21T02:45:14;13.40;;;9.05;;
46767;SDS011;69007;48.978;18.066;2023-08-21T02:47:40;12.88;;;8.88;;
46767;SDS011;69007;48.978;18.066;2023-08-21T02:50:07;10.23;;;9.30;;
46767;SDS011;69007;48.978;18.066;2023-08-21T02:52:34;13.32;;;8.73;;
46767;SDS011;69007;48.978;18.066;2023-08-21T02:55:00;10.18;;;9.07;;
46767;SDS011;69007;48.978;18.066;2023-08-21T02:57:26;10.55;;;8.98;;
46767;SDS011;69007;48.978;18.066;2023-08-21T02:59:52;10.60;;;9.00;;
46767;SDS011;69007;48.978;18.066;2023-08-21T03:02:19;10.68;;;9.57;;
46767;SDS011;69007;48.978;18.066;2023-08-21T03:04:45;13.57;;;9.40;;
46767;SDS011;69007;48.978;18.066;2023-08-21T03:07:11;10.80;;;9.52;;
46767;SDS011;69007;48.978;18.066;2023-08-21T03:09:37;14.43;;;9.25;;
46767;SDS011;69007;48.978;18.066;2023-08-21T03:12:04;21.17;;;9.95;;
46767;SDS011;69007;48.978;18.066;2023-08-21T03:14:29;12.15;;;8.80;;
46767;SDS011;69007;48.978;18.066;2023-08-21T03:16:55;13.35;;;9.50;;
46767;SDS011;69007;48.978;18.066;2023-08-21T03:19:20;19.15;;;8.90;;
46767;SDS011;69007;48.978;18.066;2023-08-21T03:21:46;11.95;;;8.80;;
46767;SDS011;69007;48.978;18.066;2023-08-21T03:24:11;15.80;;;9.40;;
46767;SDS011;69007;48.978;18.066;2023-08-21T03:26:36;16.25;;;9.45;;
46767;SDS011;69007;48.978;18.066;2023-08-21T03:29:02;12.10;;;9.63;;
46767;SDS011;69007;48.978;18.066;2023-08-21T03:31:28;12.73;;;9.23;;
46767;SDS011;69007;48.978;18.066;2023-08-21T03:33:54;15.02;;;9.32;;
46767;SDS011;69007;48.978;18.066;2023-08-21T03:36:19;17.67;;;8.93;;
46767;SDS011;69007;48.978;18.066;2023-08-21T03:38:45;13.65;;;8.90;;
46767;SDS011;69007;48.978;18.066;2023-08-21T03:41:10;12.10;;;8.82;;
46767;SDS011;69007;48.978;18.066;2023-08-21T03:43:36;9.57;;;8.55;;
46767;SDS011;69007;48.978;18.066;2023-08-21T03:46:02;10.38;;;8.82;;
46767;SDS011;69007;48.978;18.066;2023-08-21T03:48:28;9.30;;;8.35;;
46767;SDS011;69007;48.978;18.066;2023-08-21T03:50:53;9.75;;;8.80;;
46767;SDS011;69007;48.978;18.066;2023-08-21T03:53:18;11.63;;;8.57;;
46767;SDS011;69007;48.978;18.066;2023-08-21T03:55:44;10.25;;;9.25;;
46767;SDS011;69007;48.978;18.066;2023-08-21T03:58:09;16.40;;;9.10;;
46767;SDS011;69007;48.978;18.066;2023-08-21T04:00:35;10.15;;;9.20;;
46767;SDS011;69007;48.978;18.066;2023-08-21T04:03:00;12.68;;;9.38;;
46767;SDS011;69007;48.978;18.066;2023-08-21T04:05:25;14.60;;;8.77;;
46767;SDS011;69007;48.978;18.066;2023-08-21T04:07:51;12.07;;;9.15;;
46767;SDS011;69007;48.978;18.066;2023-08-21T04:10:16;10.15;;;8.93;;
46767;SDS011;69007;48.978;18.066;2023-08-21T04:12:42;11.98;;;8.18;;
46767;SDS011;69007;48.978;18.066;2023-08-21T04:15:07;9.25;;;8.30;;
46767;SDS011;69007;48.978;18.066;2023-08-21T04:17:33;10.73;;;8.60;;
46767;SDS011;69007;48.978;18.066;2023-08-21T04:19:59;13.82;;;9.27;;
46767;SDS011;69007;48.978;18.066;2023-08-21T04:22:24;13.80;;;9.25;;
46767;SDS011;69007;48.978;18.066;2023-08-21T04:24:49;9.93;;;8.27;;
46767;SDS011;69007;48.978;18.066;2023-08-21T04:27:15;14.63;;;8.02;;
46767;SDS011;69007;48.978;18.066;2023-08-21T04:29:40;9.02;;;8.10;;
46767;SDS011;69007;48.978;18.066;2023-08-21T04:32:06;11.75;;;7.93;;
46767;SDS011;69007;48.978;18.066;2023-08-21T04:34:34;9.43;;;7.57;;
46767;SDS011;69007;48.978;18.066;2023-08-21T04:37:00;10.93;;;7.40;;
46767;SDS011;69007;48.978;18.066;2023-08-21T04:39:25;10.50;;;7.72;;
46767;SDS011;69007;48.978;18.066;2023-08-21T04:41:51;7.32;;;6.72;;
46767;SDS011;69007;48.978;18.066;2023-08-21T04:44:16;10.00;;;7.35;;
46767;SDS011;69007;48.978;18.066;2023-08-21T04:46:42;8.43;;;6.88;;
46767;SDS011;69007;48.978;18.066;2023-08-21T04:49:07;9.98;;;7.28;;
46767;SDS011;69007;48.978;18.066;2023-08-21T04:51:33;11.25;;;7.30;;
46767;SDS011;69007;48.978;18.066;2023-08-21T04:53:59;10.38;;;7.68;;
46767;SDS011;69007;48.978;18.066;2023-08-21T04:56:25;9.07;;;6.78;;
46767;SDS011;69007;48.978;18.066;2023-08-21T04:58:51;11.80;;;6.78;;
46767;SDS011;69007;48.978;18.066;2023-08-21T05:01:17;13.40;;;7.53;;
46767;SDS011;69007;48.978;18.066;2023-08-21T05:03:43;7.63;;;6.88;;
46767;SDS011;69007;48.978;18.066;2023-08-21T05:06:08;12.75;;;7.20;;
46767;SDS011;69007;48.978;18.066;2023-08-21T05:08:33;7.90;;;7.10;;
46767;SDS011;69007;48.978;18.066;2023-08-21T05:10:59;11.45;;;7.50;;
46767;SDS011;69007;48.978;18.066;2023-08-21T05:13:25;12.05;;;6.72;;
46767;SDS011;69007;48.978;18.066;2023-08-21T05:15:57;9.75;;;7.35;;
46767;SDS011;69007;48.978;18.066;2023-08-21T05:18:23;9.45;;;6.70;;
46767;SDS011;69007;48.978;18.066;2023-08-21T05:20:49;8.23;;;7.03;;
46767;SDS011;69007;48.978;18.066;2023-08-21T05:23:16;11.45;;;6.43;;
46767;SDS011;69007;48.978;18.066;2023-08-21T05:25:45;7.68;;;6.97;;
46767;SDS011;69007;48.978;18.066;2023-08-21T05:28:10;15.02;;;7.63;;
46767;SDS011;69007;48.978;18.066;2023-08-21T05:30:36;10.23;;;6.88;;
46767;SDS011;69007;48.978;18.066;2023-08-21T05:33:02;7.97;;;6.80;;
46767;SDS011;69007;48.978;18.066;2023-08-21T05:35:28;10.02;;;7.10;;
46767;SDS011;69007;48.978;18.066;2023-08-21T05:37:54;10.48;;;6.85;;
46767;SDS011;69007;48.978;18.066;2023-08-21T05:40:20;12.93;;;6.55;;
46767;SDS011;69007;48.978;18.066;2023-08-21T05:42:45;17.13;;;7.85;;
46767;SDS011;69007;48.978;18.066;2023-08-21T05:45:10;10.35;;;6.65;;
46767;SDS011;69007;48.978;18.066;2023-08-21T05:47:36;15.25;;;7.25;;
46767;SDS011;69007;48.978;18.066;2023-08-21T05:50:01;7.32;;;5.80;;
46767;SDS011;69007;48.978;18.066;2023-08-21T05:52:27;6.28;;;5.78;;
46767;SDS011;69007;48.978;18.066;2023-08-21T05:54:52;8.30;;;6.15;;
46767;SDS011;69007;48.978;18.066;2023-08-21T05:57:18;6.53;;;5.63;;
46767;SDS011;69007;48.978;18.066;2023-08-21T05:59:44;6.28;;;5.65;;
46767;SDS011;69007;48.978;18.066;2023-08-21T06:02:11;14.10;;;5.43;;
46767;SDS011;69007;48.978;18.066;2023-08-21T06:04:37;5.75;;;5.25;;
46767;SDS011;69007;48.978;18.066;2023-08-21T06:07:04;9.68;;;5.40;;
46767;SDS011;69007;48.978;18.066;2023-08-21T06:09:30;8.25;;;6.03;;
46767;SDS011;69007;48.978;18.066;2023-08-21T06:11:56;11.07;;;5.75;;
46767;SDS011;69007;48.978;18.066;2023-08-21T06:14:22;12.00;;;5.90;;
46767;SDS011;69007;48.978;18.066;2023-08-21T06:16:53;8.60;;;5.53;;
46767;SDS011;69007;48.978;18.066;2023-08-21T06:19:22;10.88;;;6.22;;
46767;SDS011;69007;48.978;18.066;2023-08-21T06:21:48;6.80;;;6.20;;
46767;SDS011;69007;48.978;18.066;2023-08-21T06:24:13;7.50;;;5.47;;
46767;SDS011;69007;48.978;18.066;2023-08-21T06:26:39;13.35;;;6.28;;
46767;SDS011;69007;48.978;18.066;2023-08-21T06:29:05;12.10;;;6.05;;
46767;SDS011;69007;48.978;18.066;2023-08-21T06:31:30;9.25;;;5.47;;
46767;SDS011;69007;48.978;18.066;2023-08-21T06:33:56;6.45;;;5.43;;
46767;SDS011;69007;48.978;18.066;2023-08-21T06:36:21;7.57;;;5.28;;
46767;SDS011;69007;48.978;18.066;2023-08-21T06:38:46;19.55;;;6.38;;
46767;SDS011;69007;48.978;18.066;2023-08-21T06:41:12;10.20;;;5.70;;
46767;SDS011;69007;48.978;18.066;2023-08-21T06:43:37;9.13;;;5.90;;
46767;SDS011;69007;48.978;18.066;2023-08-21T06:46:02;11.70;;;5.70;;
46767;SDS011;69007;48.978;18.066;2023-08-21T06:48:28;9.00;;;6.15;;
46767;SDS011;69007;48.978;18.066;2023-08-21T06:50:53;13.75;;;6.32;;
46767;SDS011;69007;48.978;18.066;2023-08-21T06:53:18;11.80;;;6.30;;
46767;SDS011;69007;48.978;18.066;2023-08-21T06:55:47;13.18;;;6.57;;
46767;SDS011;69007;48.978;18.066;2023-08-21T06:58:12;10.10;;;6.80;;
46767;SDS011;69007;48.978;18.066;2023-08-21T07:00:38;10.65;;;7.10;;
46767;SDS011;69007;48.978;18.066;2023-08-21T07:03:03;18.67;;;7.53;;
46767;SDS011;69007;48.978;18.066;2023-08-21T07:05:32;11.63;;;7.25;;
46767;SDS011;69007;48.978;18.066;2023-08-21T07:07:57;14.88;;;7.47;;
46767;SDS011;69007;48.978;18.066;2023-08-21T07:10:23;12.50;;;7.93;;
46767;SDS011;69007;48.978;18.066;2023-08-21T07:12:49;14.98;;;8.13;;
46767;SDS011;69007;48.978;18.066;2023-08-21T07:15:14;16.23;;;7.90;;
46767;SDS011;69007;48.978;18.066;2023-08-21T07:17:40;19.35;;;8.70;;
46767;SDS011;69007;48.978;18.066;2023-08-21T07:20:06;13.80;;;7.95;;
46767;SDS011;69007;48.978;18.066;2023-08-21T07:22:32;15.02;;;8.40;;
46767;SDS011;69007;48.978;18.066;2023-08-21T07:24:57;11.80;;;7.95;;
46767;SDS011;69007;48.978;18.066;2023-08-21T07:27:25;17.58;;;8.68;;
46767;SDS011;69007;48.978;18.066;2023-08-21T07:29:50;10.48;;;7.90;;
46767;SDS011;69007;48.978;18.066;2023-08-21T07:32:16;12.15;;;7.80;;
46767;SDS011;69007;48.978;18.066;2023-08-21T07:34:41;14.95;;;8.63;;
46767;SDS011;69007;48.978;18.066;2023-08-21T07:37:07;14.77;;;8.48;;
46767;SDS011;69007;48.978;18.066;2023-08-21T07:39:34;9.43;;;8.40;;
46767;SDS011;69007;48.978;18.066;2023-08-21T07:41:59;10.57;;;8.15;;
46767;SDS011;69007;48.978;18.066;2023-08-21T07:44:25;15.70;;;8.80;;
46767;SDS011;69007;48.978;18.066;2023-08-21T07:46:51;16.23;;;8.40;;
46767;SDS011;69007;48.978;18.066;2023-08-21T07:49:16;15.35;;;8.38;;
46767;SDS011;69007;48.978;18.066;2023-08-21T07:51:42;13.07;;;8.48;;
46767;SDS011;69007;48.978;18.066;2023-08-21T07:54:07;10.68;;;8.30;;
46767;SDS011;69007;48.978;18.066;2023-08-21T07:56:32;9.57;;;8.27;;
46767;SDS011;69007;48.978;18.066;2023-08-21T07:58:58;15.27;;;7.95;;
46767;SDS011;69007;48.978;18.066;2023-08-21T08:01:24;11.32;;;8.18;;
46767;SDS011;69007;48.978;18.066;2023-08-21T08:03:50;10.07;;;8.27;;
46767;SDS011;69007;48.978;18.066;2023-08-21T08:06:16;13.60;;;8.57;;
46767;SDS011;69007;48.978;18.066;2023-08-21T08:08:41;15.15;;;9.20;;
46767;SDS011;69007;48.978;18.066;2023-08-21T08:11:07;16.23;;;8.70;;
46767;SDS011;69007;48.978;18.066;2023-08-21T08:13:32;14.43;;;9.05;;
46767;SDS011;69007;48.978;18.066;2023-08-21T08:15:57;9.02;;;8.02;;
46767;SDS011;69007;48.978;18.066;2023-08-21T08:18:23;10.23;;;8.40;;
46767;SDS011;69007;48.978;18.066;2023-08-21T08:20:48;10.77;;;8.80;;
46767;SDS011;69007;48.978;18.066;2023-08-21T08:23:14;11.07;;;8.15;;
46767;SDS011;69007;48.978;18.066;2023-08-21T08:25:39;8.93;;;8.15;;
46767;SDS011;69007;48.978;18.066;2023-08-21T08:28:05;9.82;;;8.82;;
46767;SDS011;69007;48.978;18.066;2023-08-21T08:30:30;10.35;;;8.48;;
46767;SDS011;69007;48.978;18.066;2023-08-21T08:32:56;8.50;;;7.80;;
46767;SDS011;69007;48.978;18.066;2023-08-21T08:35:21;9.45;;;8.57;;
46767;SDS011;69007;48.978;18.066;2023-08-21T08:37:47;13.90;;;8.57;;
46767;SDS011;69007;48.978;18.066;2023-08-21T08:40:12;9.45;;;7.97;;
46767;SDS011;69007;48.978;18.066;2023-08-21T08:42:38;9.55;;;8.40;;
46767;SDS011;69007;48.978;18.066;2023-08-21T08:45:04;9.90;;;7.78;;
46767;SDS011;69007;48.978;18.066;2023-08-21T08:47:33;14.23;;;7.68;;
46767;SDS011;69007;48.978;18.066;2023-08-21T08:50:03;9.48;;;8.52;;
46767;SDS011;69007;48.978;18.066;2023-08-21T08:52:36;13.63;;;8.40;;
46767;SDS011;69007;48.978;18.066;2023-08-21T08:55:03;9.27;;;7.97;;
46767;SDS011;69007;48.978;18.066;2023-08-21T08:57:29;11.95;;;8.20;;
46767;SDS011;69007;48.978;18.066;2023-08-21T08:59:55;8.75;;;7.80;;
46767;SDS011;69007;48.978;18.066;2023-08-21T09:02:20;11.85;;;7.78;;
46767;SDS011;69007;48.978;18.066;2023-08-21T09:04:46;12.98;;;8.25;;
46767;SDS011;69007;48.978;18.066;2023-08-21T09:07:11;7.90;;;7.07;;
46767;SDS011;69007;48.978;18.066;2023-08-21T09:09:40;8.90;;;7.65;;
46767;SDS011;69007;48.978;18.066;2023-08-21T09:12:11;10.73;;;7.78;;
46767;SDS011;69007;48.978;18.066;2023-08-21T09:14:41;9.10;;;8.20;;
46767;SDS011;69007;48.978;18.066;2023-08-21T09:17:08;8.70;;;7.90;;
46767;SDS011;69007;48.978;18.066;2023-08-21T09:19:34;12.02;;;8.73;;
46767;SDS011;69007;48.978;18.066;2023-08-21T09:24:36;8.57;;;7.20;;
46767;SDS011;69007;48.978;18.066;2023-08-21T09:27:03;13.40;;;7.85;;
46767;SDS011;69007;48.978;18.066;2023-08-21T09:29:39;8.38;;;7.53;;
46767;SDS011;69007;48.978;18.066;2023-08-21T09:32:08;10.82;;;7.78;;
46767;SDS011;69007;48.978;18.066;2023-08-21T09:34:37;10.35;;;7.90;;
46767;SDS011;69007;48.978;18.066;2023-08-21T09:37:06;10.32;;;7.75;;
46767;SDS011;69007;48.978;18.066;2023-08-21T09:39:33;14.40;;;7.63;;
46767;SDS011;69007;48.978;18.066;2023-08-21T09:42:08;8.77;;;6.93;;
46767;SDS011;69007;48.978;18.066;2023-08-21T09:44:37;9.48;;;7.75;;
46767;SDS011;69007;48.978;18.066;2023-08-21T09:47:04;11.65;;;8.45;;
46767;SDS011;69007;48.978;18.066;2023-08-21T09:49:32;7.95;;;7.13;;
46767;SDS011;69007;48.978;18.066;2023-08-21T09:51:59;10.00;;;7.15;;
46767;SDS011;69007;48.978;18.066;2023-08-21T09:54:26;11.57;;;7.93;;
46767;SDS011;69007;48.978;18.066;2023-08-21T09:56:51;8.60;;;6.93;;
46767;SDS011;69007;48.978;18.066;2023-08-21T09:59:17;11.02;;;7.38;;
46767;SDS011;69007;48.978;18.066;2023-08-21T10:01:43;15.18;;;7.15;;
46767;SDS011;69007;48.978;18.066;2023-08-21T10:04:11;8.20;;;7.38;;
46767;SDS011;69007;48.978;18.066;2023-08-21T10:06:38;7.97;;;7.15;;
46767;SDS011;69007;48.978;18.066;2023-08-21T10:09:04;14.27;;;7.60;;
46767;SDS011;69007;48.978;18.066;2023-08-21T10:11:29;7.90;;;7.10;;
46767;SDS011;69007;48.978;18.066;2023-08-21T10:13:55;9.10;;;6.97;;
46767;SDS011;69007;48.978;18.066;2023-08-21T10:16:22;11.88;;;6.82;;
46767;SDS011;69007;48.978;18.066;2023-08-21T10:18:48;9.25;;;6.88;;
46767;SDS011;69007;48.978;18.066;2023-08-21T10:21:14;8.25;;;7.45;;
46767;SDS011;69007;48.978;18.066;2023-08-21T10:23:42;9.13;;;7.20;;
46767;SDS011;69007;48.978;18.066;2023-08-21T10:26:10;13.95;;;7.70;;
46767;SDS011;69007;48.978;18.066;2023-08-21T10:28:43;9.63;;;6.63;;
46767;SDS011;69007;48.978;18.066;2023-08-21T10:33:56;10.93;;;6.82;;
46767;SDS011;69007;48.978;18.066;2023-08-21T10:36:36;8.38;;;6.85;;
46767;SDS011;69007;48.978;18.066;2023-08-21T10:41:40;7.53;;;6.82;;
46767;SDS011;69007;48.978;18.066;2023-08-21T10:44:06;12.82;;;6.53;;
46767;SDS011;69007;48.978;18.066;2023-08-21T10:46:50;7.75;;;6.95;;
46767;SDS011;69007;48.978;18.066;2023-08-21T10:49:16;16.20;;;6.43;;
46767;SDS011;69007;48.978;18.066;2023-08-21T10:51:42;6.63;;;6.00;;
46767;SDS011;69007;48.978;18.066;2023-08-21T10:54:12;9.52;;;6.68;;
46767;SDS011;69007;48.978;18.066;2023-08-21T10:56:39;12.65;;;6.57;;
46767;SDS011;69007;48.978;18.066;2023-08-21T10:59:04;9.15;;;6.60;;
46767;SDS011;69007;48.978;18.066;2023-08-21T11:01:42;7.35;;;6.65;;
46767;SDS011;69007;48.978;18.066;2023-08-21T11:04:13;7.35;;;6.75;;
46767;SDS011;69007;48.978;18.066;2023-08-21T11:06:39;6.85;;;6.20;;
46767;SDS011;69007;48.978;18.066;2023-08-21T11:09:05;8.60;;;7.10;;
46767;SDS011;69007;48.978;18.066;2023-08-21T11:11:30;7.28;;;6.45;;
46767;SDS011;69007;48.978;18.066;2023-08-21T11:13:56;10.82;;;6.97;;
46767;SDS011;69007;48.978;18.066;2023-08-21T11:16:21;7.47;;;6.72;;
46767;SDS011;69007;48.978;18.066;2023-08-21T11:18:47;7.22;;;6.63;;
46767;SDS011;69007;48.978;18.066;2023-08-21T11:21:12;10.13;;;6.90;;
46767;SDS011;69007;48.978;18.066;2023-08-21T11:23:38;8.95;;;6.78;;
46767;SDS011;69007;48.978;18.066;2023-08-21T11:26:05;8.75;;;6.30;;
46767;SDS011;69007;48.978;18.066;2023-08-21T11:28:31;15.40;;;8.18;;
46767;SDS011;69007;48.978;18.066;2023-08-21T11:30:57;7.35;;;6.60;;
46767;SDS011;69007;48.978;18.066;2023-08-21T11:33:23;9.85;;;7.32;;
46767;SDS011;69007;48.978;18.066;2023-08-21T11:35:49;9.77;;;6.88;;
46767;SDS011;69007;48.978;18.066;2023-08-21T11:38:19;9.27;;;6.85;;
46767;SDS011;69007;48.978;18.066;2023-08-21T11:40:52;7.13;;;6.43;;
46767;SDS011;69007;48.978;18.066;2023-08-21T11:43:22;15.35;;;6.68;;
46767;SDS011;69007;48.978;18.066;2023-08-21T11:45:49;7.70;;;6.63;;
46767;SDS011;69007;48.978;18.066;2023-08-21T11:48:14;7.45;;;6.43;;
46767;SDS011;69007;48.978;18.066;2023-08-21T11:50:40;12.00;;;7.20;;
46767;SDS011;69007;48.978;18.066;2023-08-21T11:53:05;7.68;;;6.95;;
46767;SDS011;69007;48.978;18.066;2023-08-21T11:55:31;9.82;;;7.18;;
46767;SDS011;69007;48.978;18.066;2023-08-21T11:57:56;7.85;;;6.70;;
46767;SDS011;69007;48.978;18.066;2023-08-21T12:00:26;11.95;;;7.07;;
46767;SDS011;69007;48.978;18.066;2023-08-21T12:02:53;11.98;;;8.07;;
46767;SDS011;69007;48.978;18.066;2023-08-21T12:05:21;7.57;;;6.70;;
46767;SDS011;69007;48.978;18.066;2023-08-21T12:07:46;10.05;;;6.70;;
46767;SDS011;69007;48.978;18.066;2023-08-21T12:10:12;7.18;;;6.57;;
46767;SDS011;69007;48.978;18.066;2023-08-21T12:12:37;9.13;;;6.68;;
46767;SDS011;69007;48.978;18.066;2023-08-21T12:15:03;7.68;;;6.85;;
46767;SDS011;69007;48.978;18.066;2023-08-21T12:17:28;10.25;;;7.05;;
46767;SDS011;69007;48.978;18.066;2023-08-21T12:19:54;11.23;;;7.03;;
46767;SDS011;69007;48.978;18.066;2023-08-21T12:22:19;7.00;;;6.25;;
46767;SDS011;69007;48.978;18.066;2023-08-21T12:24:44;8.20;;;7.07;;
46767;SDS011;69007;48.978;18.066;2023-08-21T12:27:10;8.18;;;6.57;;
46767;SDS011;69007;48.978;18.066;2023-08-21T12:29:35;7.88;;;6.38;;
46767;SDS011;69007;48.978;18.066;2023-08-21T12:32:01;7.57;;;6.63;;
46767;SDS011;69007;48.978;18.066;2023-08-21T12:34:28;7.70;;;6.53;;
46767;SDS011;69007;48.978;18.066;2023-08-21T12:36:53;8.65;;;6.38;;
46767;SDS011;69007;48.978;18.066;2023-08-21T12:39:18;10.13;;;6.53;;
46767;SDS011;69007;48.978;18.066;2023-08-21T12:41:44;12.60;;;6.95;;
46767;SDS011;69007;48.978;18.066;2023-08-21T12:44:09;13.90;;;6.57;;
46767;SDS011;69007;48.978;18.066;2023-08-21T12:46:35;7.53;;;6.65;;
46767;SDS011;69007;48.978;18.066;2023-08-21T12:49:01;13.40;;;7.38;;
46767;SDS011;69007;48.978;18.066;2023-08-21T12:51:27;7.68;;;6.95;;
46767;SDS011;69007;48.978;18.066;2023-08-21T12:53:53;9.70;;;6.78;;
46767;SDS011;69007;48.978;18.066;2023-08-21T12:56:19;8.60;;;6.78;;
46767;SDS011;69007;48.978;18.066;2023-08-21T12:58:45;9.38;;;6.85;;
46767;SDS011;69007;48.978;18.066;2023-08-21T13:01:11;8.20;;;6.07;;
46767;SDS011;69007;48.978;18.066;2023-08-21T13:03:37;7.88;;;6.43;;
46767;SDS011;69007;48.978;18.066;2023-08-21T13:06:03;6.63;;;6.05;;
46767;SDS011;69007;48.978;18.066;2023-08-21T13:08:29;7.00;;;6.28;;
46767;SDS011;69007;48.978;18.066;2023-08-21T13:10:54;9.27;;;6.25;;
46767;SDS011;69007;48.978;18.066;2023-08-21T13:13:19;7.63;;;6.90;;
46767;SDS011;69007;48.978;18.066;2023-08-21T13:15:45;12.02;;;6.00;;
46767;SDS011;69007;48.978;18.066;2023-08-21T13:18:11;11.27;;;6.65;;
46767;SDS011;69007;48.978;18.066;2023-08-21T13:20:37;12.07;;;5.95;;
46767;SDS011;69007;48.978;18.066;2023-08-21T13:23:02;9.23;;;6.80;;
46767;SDS011;69007;48.978;18.066;2023-08-21T13:25:28;9.05;;;6.60;;
46767;SDS011;69007;48.978;18.066;2023-08-21T13:27:55;11.55;;;6.97;;
46767;SDS011;69007;48.978;18.066;2023-08-21T13:30:21;7.25;;;6.50;;
46767;SDS011;69007;48.978;18.066;2023-08-21T13:32:47;7.18;;;6.57;;
46767;SDS011;69007;48.978;18.066;2023-08-21T13:35:13;10.13;;;6.47;;
46767;SDS011;69007;48.978;18.066;2023-08-21T13:37:38;9.52;;;7.07;;
46767;SDS011;69007;48.978;18.066;2023-08-21T13:40:05;9.90;;;6.43;;
46767;SDS011;69007;48.978;18.066;2023-08-21T13:42:39;7.57;;;6.35;;
46767;SDS011;69007;48.978;18.066;2023-08-21T13:45:12;8.10;;;6.55;;
46767;SDS011;69007;48.978;18.066;2023-08-21T13:47:39;8.63;;;6.47;;
46767;SDS011;69007;48.978;18.066;2023-08-21T13:50:05;7.05;;;6.45;;
46767;SDS011;69007;48.978;18.066;2023-08-21T13:52:32;7.68;;;6.70;;
46767;SDS011;69007;48.978;18.066;2023-08-21T13:54:58;8.82;;;6.32;;
46767;SDS011;69007;48.978;18.066;2023-08-21T13:57:24;7.25;;;6.40;;
46767;SDS011;69007;48.978;18.066;2023-08-21T13:59:49;7.18;;;6.47;;
46767;SDS011;69007;48.978;18.066;2023-08-21T14:02:14;7.85;;;6.22;;
46767;SDS011;69007;48.978;18.066;2023-08-21T14:04:40;8.13;;;6.13;;
46767;SDS011;69007;48.978;18.066;2023-08-21T14:07:05;7.32;;;6.20;;
46767;SDS011;69007;48.978;18.066;2023-08-21T14:09:31;7.65;;;6.47;;
46767;SDS011;69007;48.978;18.066;2023-08-21T14:11:56;6.60;;;6.00;;
46767;SDS011;69007;48.978;18.066;2023-08-21T14:14:21;9.43;;;6.90;;
46767;SDS011;69007;48.978;18.066;2023-08-21T14:16:46;9.63;;;6.47;;
46767;SDS011;69007;48.978;18.066;2023-08-21T14:19:12;7.88;;;7.10;;
46767;SDS011;69007;48.978;18.066;2023-08-21T14:21:37;6.72;;;6.13;;
46767;SDS011;69007;48.978;18.066;2023-08-21T14:24:03;12.43;;;9.25;;
46767;SDS011;69007;48.978;18.066;2023-08-21T14:26:28;9.70;;;7.22;;
46767;SDS011;69007;48.978;18.066;2023-08-21T14:28:54;9.60;;;6.45;;
46767;SDS011;69007;48.978;18.066;2023-08-21T14:31:19;10.82;;;6.65;;
46767;SDS011;69007;48.978;18.066;2023-08-21T14:33:45;13.15;;;6.90;;
46767;SDS011;69007;48.978;18.066;2023-08-21T14:36:10;6.70;;;6.00;;